sensor_id;sensor_type;location;lat;lon;timestamp;temperature;humidity
78886;DHT22;68269;52.514;5.722;2023-09-19T00:01:21;17.60;66.70
78886;DHT22;68269;52.514;5.722;2023-09-19T00:03:51;17.60;66.60
78886;DHT22;68269;52.514;5.722;2023-09-19T00:06:21;17.60;66.60
78886;DHT22;68269;52.514;5.722;2023-09-19T00:08:52;17.50;66.60
78886;DHT22;68269;52.514;5.722;2023-09-19T00:11:24;17.50;66.60
78886;DHT22;68269;52.514;5.722;2023-09-19T00:13:53;17.50;66.50
78886;DHT22;68269;52.514;5.722;2023-09-19T00:16:25;17.50;66.50
78886;DHT22;68269;52.514;5.722;2023-09-19T00:18:54;17.50;66.50
78886;DHT22;68269;52.514;5.722;2023-09-19T00:21:24;17.50;66.40
78886;DHT22;68269;52.514;5.722;2023-09-19T00:23:54;17.50;66.40
78886;DHT22;68269;52.514;5.722;2023-09-19T00:26:26;17.40;66.30
78886;DHT22;68269;52.514;5.722;2023-09-19T00:28:57;17.40;66.30
78886;DHT22;68269;52.514;5.722;2023-09-19T00:31:31;17.40;66.30
78886;DHT22;68269;52.514;5.722;2023-09-19T00:34:00;17.30;66.20
78886;DHT22;68269;52.514;5.722;2023-09-19T00:36:30;17.40;66.20
78886;DHT22;68269;52.514;5.722;2023-09-19T00:38:59;17.30;66.20
78886;DHT22;68269;52.514;5.722;2023-09-19T00:41:34;17.20;66.20
78886;DHT22;68269;52.514;5.722;2023-09-19T00:44:04;17.20;66.20
78886;DHT22;68269;52.514;5.722;2023-09-19T00:46:35;17.20;66.10
78886;DHT22;68269;52.514;5.722;2023-09-19T00:49:05;17.20;66.10
78886;DHT22;68269;52.514;5.722;2023-09-19T00:51:37;17.20;66.10
78886;DHT22;68269;52.514;5.722;2023-09-19T00:54:11;17.20;66.10
78886;DHT22;68269;52.514;5.722;2023-09-19T00:56:47;17.20;66.10
78886;DHT22;68269;52.514;5.722;2023-09-19T00:59:17;17.20;66.10
78886;DHT22;68269;52.514;5.722;2023-09-19T01:01:48;17.20;66.00
78886;DHT22;68269;52.514;5.722;2023-09-19T01:04:20;17.20;66.00
78886;DHT22;68269;52.514;5.722;2023-09-19T01:06:49;17.20;66.00
78886;DHT22;68269;52.514;5.722;2023-09-19T01:09:19;17.20;66.00
78886;DHT22;68269;52.514;5.722;2023-09-19T01:11:54;17.20;66.00
78886;DHT22;68269;52.514;5.722;2023-09-19T01:14:30;17.20;66.00
78886;DHT22;68269;52.514;5.722;2023-09-19T01:17:03;17.20;66.00
78886;DHT22;68269;52.514;5.722;2023-09-19T01:22:57;17.20;66.00
78886;DHT22;68269;52.514;5.722;2023-09-19T01:29:12;17.10;66.00
78886;DHT22;68269;52.514;5.722;2023-09-19T01:31:49;17.10;66.00
78886;DHT22;68269;52.514;5.722;2023-09-19T01:34:21;17.00;66.00
78886;DHT22;68269;52.514;5.722;2023-09-19T01:36:52;17.00;66.00
78886;DHT22;68269;52.514;5.722;2023-09-19T01:39:22;17.10;66.00
78886;DHT22;68269;52.514;5.722;2023-09-19T01:42:05;17.00;66.00
78886;DHT22;68269;52.514;5.722;2023-09-19T01:44:42;17.00;66.00
78886;DHT22;68269;52.514;5.722;2023-09-19T01:47:19;17.00;66.00
78886;DHT22;68269;52.514;5.722;2023-09-19T01:49:55;17.00;65.90
78886;DHT22;68269;52.514;5.722;2023-09-19T01:52:30;17.00;65.90
78886;DHT22;68269;52.514;5.722;2023-09-19T01:55:05;17.00;65.90
78886;DHT22;68269;52.514;5.722;2023-09-19T01:57:40;17.00;66.00
78886;DHT22;68269;52.514;5.722;2023-09-19T02:00:13;17.00;65.90
78886;DHT22;68269;52.514;5.722;2023-09-19T02:02:47;17.00;66.00
78886;DHT22;68269;52.514;5.722;2023-09-19T02:05:22;17.00;65.90
78886;DHT22;68269;52.514;5.722;2023-09-19T02:07:53;17.00;65.90
78886;DHT22;68269;52.514;5.722;2023-09-19T02:10:23;17.00;65.90
78886;DHT22;68269;52.514;5.722;2023-09-19T02:12:52;17.00;65.80
78886;DHT22;68269;52.514;5.722;2023-09-19T02:15:22;17.00;65.80
78886;DHT22;68269;52.514;5.722;2023-09-19T02:17:54;17.00;65.90
78886;DHT22;68269;52.514;5.722;2023-09-19T02:20:25;17.00;65.90
78886;DHT22;68269;52.514;5.722;2023-09-19T02:22:55;17.00;65.80
78886;DHT22;68269;52.514;5.722;2023-09-19T02:25:24;17.00;65.80
78886;DHT22;68269;52.514;5.722;2023-09-19T02:27:54;17.00;65.80
78886;DHT22;68269;52.514;5.722;2023-09-19T02:30:25;17.00;65.80
78886;DHT22;68269;52.514;5.722;2023-09-19T02:32:59;17.00;65.80
78886;DHT22;68269;52.514;5.722;2023-09-19T02:35:29;17.00;65.90
78886;DHT22;68269;52.514;5.722;2023-09-19T02:38:02;17.00;65.80
78886;DHT22;68269;52.514;5.722;2023-09-19T02:40:32;17.00;65.80
78886;DHT22;68269;52.514;5.722;2023-09-19T02:43:03;17.00;65.80
78886;DHT22;68269;52.514;5.722;2023-09-19T02:45:33;17.00;65.80
78886;DHT22;68269;52.514;5.722;2023-09-19T02:48:05;16.90;65.80
78886;DHT22;68269;52.514;5.722;2023-09-19T02:50:35;17.00;65.80
78886;DHT22;68269;52.514;5.722;2023-09-19T02:53:06;17.00;65.80
78886;DHT22;68269;52.514;5.722;2023-09-19T02:55:37;17.00;65.80
78886;DHT22;68269;52.514;5.722;2023-09-19T02:58:07;17.00;65.80
78886;DHT22;68269;52.514;5.722;2023-09-19T03:00:38;17.00;65.80
78886;DHT22;68269;52.514;5.722;2023-09-19T03:03:11;16.90;65.90
78886;DHT22;68269;52.514;5.722;2023-09-19T03:05:41;16.90;65.90
78886;DHT22;68269;52.514;5.722;2023-09-19T03:08:13;16.90;66.00
78886;DHT22;68269;52.514;5.722;2023-09-19T03:10:46;16.90;66.00
78886;DHT22;68269;52.514;5.722;2023-09-19T03:13:16;16.90;66.00
78886;DHT22;68269;52.514;5.722;2023-09-19T03:15:46;16.80;66.00
78886;DHT22;68269;52.514;5.722;2023-09-19T03:18:22;16.80;66.00
78886;DHT22;68269;52.514;5.722;2023-09-19T03:20:53;16.80;66.00
78886;DHT22;68269;52.514;5.722;2023-09-19T03:23:23;16.80;66.00
78886;DHT22;68269;52.514;5.722;2023-09-19T03:25:53;16.80;66.00
78886;DHT22;68269;52.514;5.722;2023-09-19T03:28:23;16.80;66.00
78886;DHT22;68269;52.514;5.722;2023-09-19T03:31:00;16.80;66.00
78886;DHT22;68269;52.514;5.722;2023-09-19T03:33:34;16.80;66.00
78886;DHT22;68269;52.514;5.722;2023-09-19T03:36:05;16.70;66.00
78886;DHT22;68269;52.514;5.722;2023-09-19T03:38:35;16.70;66.00
78886;DHT22;68269;52.514;5.722;2023-09-19T03:41:04;16.70;66.00
78886;DHT22;68269;52.514;5.722;2023-09-19T03:43:36;16.70;66.00
78886;DHT22;68269;52.514;5.722;2023-09-19T03:46:05;16.70;66.00
78886;DHT22;68269;52.514;5.722;2023-09-19T03:48:38;16.70;66.00
78886;DHT22;68269;52.514;5.722;2023-09-19T03:51:07;16.70;66.00
78886;DHT22;68269;52.514;5.722;2023-09-19T03:53:37;16.60;66.00
78886;DHT22;68269;52.514;5.722;2023-09-19T03:56:06;16.60;66.00
78886;DHT22;68269;52.514;5.722;2023-09-19T03:58:35;16.70;66.00
78886;DHT22;68269;52.514;5.722;2023-09-19T04:01:06;16.60;66.00
78886;DHT22;68269;52.514;5.722;2023-09-19T04:03:38;16.60;65.90
78886;DHT22;68269;52.514;5.722;2023-09-19T04:06:14;16.60;66.00
78886;DHT22;68269;52.514;5.722;2023-09-19T04:08:44;16.60;66.00
78886;DHT22;68269;52.514;5.722;2023-09-19T04:11:14;16.60;66.00
78886;DHT22;68269;52.514;5.722;2023-09-19T04:13:45;16.60;66.00
78886;DHT22;68269;52.514;5.722;2023-09-19T04:16:15;16.60;66.10
78886;DHT22;68269;52.514;5.722;2023-09-19T04:18:48;16.60;66.10
78886;DHT22;68269;52.514;5.722;2023-09-19T04:21:17;16.60;66.10
78886;DHT22;68269;52.514;5.722;2023-09-19T04:23:47;16.60;66.20
78886;DHT22;68269;52.514;5.722;2023-09-19T04:26:16;16.60;66.10
78886;DHT22;68269;52.514;5.722;2023-09-19T04:28:46;16.50;66.20
78886;DHT22;68269;52.514;5.722;2023-09-19T04:31:15;16.50;66.20
78886;DHT22;68269;52.514;5.722;2023-09-19T04:33:48;16.50;66.20
78886;DHT22;68269;52.514;5.722;2023-09-19T04:36:17;16.50;66.20
78886;DHT22;68269;52.514;5.722;2023-09-19T04:38:48;16.50;66.20
78886;DHT22;68269;52.514;5.722;2023-09-19T04:41:17;16.40;66.30
78886;DHT22;68269;52.514;5.722;2023-09-19T04:43:48;16.40;66.20
78886;DHT22;68269;52.514;5.722;2023-09-19T04:46:18;16.40;66.20
78886;DHT22;68269;52.514;5.722;2023-09-19T04:48:50;16.40;66.30
78886;DHT22;68269;52.514;5.722;2023-09-19T04:51:20;16.40;66.40
78886;DHT22;68269;52.514;5.722;2023-09-19T04:53:49;16.40;66.40
78886;DHT22;68269;52.514;5.722;2023-09-19T04:56:19;16.20;66.40
78886;DHT22;68269;52.514;5.722;2023-09-19T04:58:48;16.20;66.40
78886;DHT22;68269;52.514;5.722;2023-09-19T05:01:17;16.20;66.30
78886;DHT22;68269;52.514;5.722;2023-09-19T05:03:51;16.20;66.30
78886;DHT22;68269;52.514;5.722;2023-09-19T05:06:21;16.10;66.30
78886;DHT22;68269;52.514;5.722;2023-09-19T05:08:50;16.10;66.30
78886;DHT22;68269;52.514;5.722;2023-09-19T05:11:20;16.10;66.30
78886;DHT22;68269;52.514;5.722;2023-09-19T05:13:50;16.10;66.30
78886;DHT22;68269;52.514;5.722;2023-09-19T05:16:20;16.10;66.30
78886;DHT22;68269;52.514;5.722;2023-09-19T05:18:52;16.10;66.20
78886;DHT22;68269;52.514;5.722;2023-09-19T05:21:21;16.10;66.20
78886;DHT22;68269;52.514;5.722;2023-09-19T05:23:51;16.10;66.20
78886;DHT22;68269;52.514;5.722;2023-09-19T05:26:21;16.10;66.30
78886;DHT22;68269;52.514;5.722;2023-09-19T05:28:51;16.10;66.20
78886;DHT22;68269;52.514;5.722;2023-09-19T05:31:20;16.10;66.20
78886;DHT22;68269;52.514;5.722;2023-09-19T05:33:53;16.10;66.20
78886;DHT22;68269;52.514;5.722;2023-09-19T05:36:22;16.10;66.20
78886;DHT22;68269;52.514;5.722;2023-09-19T05:38:51;16.10;66.20
78886;DHT22;68269;52.514;5.722;2023-09-19T05:41:21;16.10;66.10
78886;DHT22;68269;52.514;5.722;2023-09-19T05:43:50;16.20;66.10
78886;DHT22;68269;52.514;5.722;2023-09-19T05:46:20;16.20;66.10
78886;DHT22;68269;52.514;5.722;2023-09-19T05:48:52;16.20;66.00
78886;DHT22;68269;52.514;5.722;2023-09-19T05:51:22;16.20;66.00
78886;DHT22;68269;52.514;5.722;2023-09-19T05:53:55;16.20;66.00
78886;DHT22;68269;52.514;5.722;2023-09-19T05:56:24;16.20;66.00
78886;DHT22;68269;52.514;5.722;2023-09-19T05:58:54;16.20;66.00
78886;DHT22;68269;52.514;5.722;2023-09-19T06:01:23;16.20;66.00
78886;DHT22;68269;52.514;5.722;2023-09-19T06:03:55;16.20;66.00
78886;DHT22;68269;52.514;5.722;2023-09-19T06:06:26;16.20;66.00
78886;DHT22;68269;52.514;5.722;2023-09-19T06:08:56;16.20;66.10
78886;DHT22;68269;52.514;5.722;2023-09-19T06:11:25;16.20;66.10
78886;DHT22;68269;52.514;5.722;2023-09-19T06:13:58;16.20;66.10
78886;DHT22;68269;52.514;5.722;2023-09-19T06:16:28;16.20;66.10
78886;DHT22;68269;52.514;5.722;2023-09-19T06:19:01;16.20;66.00
78886;DHT22;68269;52.514;5.722;2023-09-19T06:21:32;16.20;66.10
78886;DHT22;68269;52.514;5.722;2023-09-19T06:24:02;16.20;66.10
78886;DHT22;68269;52.514;5.722;2023-09-19T06:26:31;16.20;66.10
78886;DHT22;68269;52.514;5.722;2023-09-19T06:29:01;16.20;66.10
78886;DHT22;68269;52.514;5.722;2023-09-19T06:31:33;16.20;66.10
78886;DHT22;68269;52.514;5.722;2023-09-19T06:34:05;16.20;66.10
78886;DHT22;68269;52.514;5.722;2023-09-19T06:36:34;16.20;66.10
78886;DHT22;68269;52.514;5.722;2023-09-19T06:39:04;16.20;66.10
78886;DHT22;68269;52.514;5.722;2023-09-19T06:41:37;16.10;66.20
78886;DHT22;68269;52.514;5.722;2023-09-19T06:44:10;16.10;66.10
78886;DHT22;68269;52.514;5.722;2023-09-19T06:46:39;16.20;66.20
78886;DHT22;68269;52.514;5.722;2023-09-19T06:49:13;16.20;66.10
78886;DHT22;68269;52.514;5.722;2023-09-19T06:51:42;16.20;66.10
78886;DHT22;68269;52.514;5.722;2023-09-19T06:54:11;16.20;66.10
78886;DHT22;68269;52.514;5.722;2023-09-19T06:56:40;16.20;66.10
78886;DHT22;68269;52.514;5.722;2023-09-19T06:59:10;16.30;66.10
78886;DHT22;68269;52.514;5.722;2023-09-19T07:01:40;16.30;66.10
78886;DHT22;68269;52.514;5.722;2023-09-19T07:04:13;16.40;66.10
78886;DHT22;68269;52.514;5.722;2023-09-19T07:06:43;16.30;66.10
78886;DHT22;68269;52.514;5.722;2023-09-19T07:09:12;16.40;66.10
78886;DHT22;68269;52.514;5.722;2023-09-19T07:11:41;16.40;66.10
78886;DHT22;68269;52.514;5.722;2023-09-19T07:14:11;16.40;66.10
78886;DHT22;68269;52.514;5.722;2023-09-19T07:16:40;16.40;66.10
78886;DHT22;68269;52.514;5.722;2023-09-19T07:19:13;16.40;66.10
78886;DHT22;68269;52.514;5.722;2023-09-19T07:21:43;16.40;66.10
78886;DHT22;68269;52.514;5.722;2023-09-19T07:24:13;16.40;66.20
78886;DHT22;68269;52.514;5.722;2023-09-19T07:26:44;16.40;66.20
78886;DHT22;68269;52.514;5.722;2023-09-19T07:29:14;16.50;66.20
78886;DHT22;68269;52.514;5.722;2023-09-19T07:31:43;16.50;66.10
78886;DHT22;68269;52.514;5.722;2023-09-19T07:34:16;16.60;66.20
78886;DHT22;68269;52.514;5.722;2023-09-19T07:36:46;16.60;66.10
78886;DHT22;68269;52.514;5.722;2023-09-19T07:39:15;16.60;66.20
78886;DHT22;68269;52.514;5.722;2023-09-19T07:41:44;16.70;66.20
78886;DHT22;68269;52.514;5.722;2023-09-19T07:44:15;16.70;66.20
78886;DHT22;68269;52.514;5.722;2023-09-19T07:46:44;16.80;66.20
78886;DHT22;68269;52.514;5.722;2023-09-19T07:49:19;16.80;66.20
78886;DHT22;68269;52.514;5.722;2023-09-19T07:51:48;16.80;66.20
78886;DHT22;68269;52.514;5.722;2023-09-19T07:54:19;16.80;66.20
78886;DHT22;68269;52.514;5.722;2023-09-19T07:56:48;16.80;66.20
78886;DHT22;68269;52.514;5.722;2023-09-19T07:59:17;16.90;66.20
78886;DHT22;68269;52.514;5.722;2023-09-19T08:01:47;16.90;66.20
78886;DHT22;68269;52.514;5.722;2023-09-19T08:04:19;16.90;66.30
78886;DHT22;68269;52.514;5.722;2023-09-19T08:06:48;16.90;66.30
78886;DHT22;68269;52.514;5.722;2023-09-19T08:09:18;17.00;66.30
78886;DHT22;68269;52.514;5.722;2023-09-19T08:11:48;17.00;66.30
78886;DHT22;68269;52.514;5.722;2023-09-19T08:14:17;17.00;66.40
78886;DHT22;68269;52.514;5.722;2023-09-19T08:16:46;17.00;66.40
78886;DHT22;68269;52.514;5.722;2023-09-19T08:19:18;17.10;66.30
78886;DHT22;68269;52.514;5.722;2023-09-19T08:21:49;17.10;66.30
78886;DHT22;68269;52.514;5.722;2023-09-19T08:24:19;17.20;66.30
78886;DHT22;68269;52.514;5.722;2023-09-19T08:26:48;17.20;66.40
78886;DHT22;68269;52.514;5.722;2023-09-19T08:29:17;17.20;66.40
78886;DHT22;68269;52.514;5.722;2023-09-19T08:31:47;17.20;66.40
78886;DHT22;68269;52.514;5.722;2023-09-19T08:34:19;17.30;66.30
78886;DHT22;68269;52.514;5.722;2023-09-19T08:36:50;17.40;66.20
78886;DHT22;68269;52.514;5.722;2023-09-19T08:39:22;17.40;66.40
78886;DHT22;68269;52.514;5.722;2023-09-19T08:41:57;17.40;66.30
78886;DHT22;68269;52.514;5.722;2023-09-19T08:44:27;17.50;66.20
78886;DHT22;68269;52.514;5.722;2023-09-19T08:47:04;17.50;66.20
78886;DHT22;68269;52.514;5.722;2023-09-19T08:49:57;17.50;66.20
78886;DHT22;68269;52.514;5.722;2023-09-19T08:52:39;17.50;66.20
78886;DHT22;68269;52.514;5.722;2023-09-19T08:55:13;17.60;66.20
78886;DHT22;68269;52.514;5.722;2023-09-19T08:57:49;17.60;66.20
78886;DHT22;68269;52.514;5.722;2023-09-19T09:00:19;17.60;66.20
78886;DHT22;68269;52.514;5.722;2023-09-19T09:02:50;17.70;66.20
78886;DHT22;68269;52.514;5.722;2023-09-19T09:05:23;17.80;66.20
78886;DHT22;68269;52.514;5.722;2023-09-19T09:07:53;17.80;66.20
78886;DHT22;68269;52.514;5.722;2023-09-19T09:10:23;17.80;66.20
78886;DHT22;68269;52.514;5.722;2023-09-19T09:12:53;17.80;66.20
78886;DHT22;68269;52.514;5.722;2023-09-19T09:15:24;17.90;66.10
78886;DHT22;68269;52.514;5.722;2023-09-19T09:17:53;18.00;66.10
78886;DHT22;68269;52.514;5.722;2023-09-19T09:20:27;18.00;66.10
78886;DHT22;68269;52.514;5.722;2023-09-19T09:22:57;18.00;66.00
78886;DHT22;68269;52.514;5.722;2023-09-19T09:25:53;18.00;66.00
78886;DHT22;68269;52.514;5.722;2023-09-19T09:28:27;18.10;65.90
78886;DHT22;68269;52.514;5.722;2023-09-19T09:30:57;18.20;65.90
78886;DHT22;68269;52.514;5.722;2023-09-19T09:33:29;18.20;65.90
78886;DHT22;68269;52.514;5.722;2023-09-19T09:36:02;18.20;65.90
78886;DHT22;68269;52.514;5.722;2023-09-19T09:38:43;18.20;65.90
78886;DHT22;68269;52.514;5.722;2023-09-19T09:41:16;18.30;65.80
78886;DHT22;68269;52.514;5.722;2023-09-19T09:43:54;18.30;65.80
78886;DHT22;68269;52.514;5.722;2023-09-19T09:46:25;18.30;65.90
78886;DHT22;68269;52.514;5.722;2023-09-19T09:49:07;18.30;65.90
78886;DHT22;68269;52.514;5.722;2023-09-19T09:52:03;18.30;65.80
78886;DHT22;68269;52.514;5.722;2023-09-19T09:54:35;18.40;65.70
78886;DHT22;68269;52.514;5.722;2023-09-19T09:57:08;18.40;65.70
78886;DHT22;68269;52.514;5.722;2023-09-19T09:59:48;18.40;65.70
78886;DHT22;68269;52.514;5.722;2023-09-19T10:02:21;18.40;65.70
78886;DHT22;68269;52.514;5.722;2023-09-19T10:04:55;18.40;65.70
78886;DHT22;68269;52.514;5.722;2023-09-19T10:07:38;18.40;65.60
78886;DHT22;68269;52.514;5.722;2023-09-19T10:10:13;18.50;65.50
78886;DHT22;68269;52.514;5.722;2023-09-19T10:12:48;18.50;65.40
78886;DHT22;68269;52.514;5.722;2023-09-19T10:15:18;18.50;65.40
78886;DHT22;68269;52.514;5.722;2023-09-19T10:17:51;18.60;65.30
78886;DHT22;68269;52.514;5.722;2023-09-19T10:20:25;18.60;65.20
78886;DHT22;68269;52.514;5.722;2023-09-19T10:23:08;18.60;65.20
78886;DHT22;68269;52.514;5.722;2023-09-19T10:25:38;18.70;65.10
78886;DHT22;68269;52.514;5.722;2023-09-19T10:28:08;18.70;65.10
78886;DHT22;68269;52.514;5.722;2023-09-19T10:30:42;18.80;65.00
78886;DHT22;68269;52.514;5.722;2023-09-19T10:33:14;18.80;65.00
78886;DHT22;68269;52.514;5.722;2023-09-19T10:35:46;18.90;65.00
78886;DHT22;68269;52.514;5.722;2023-09-19T10:38:19;19.00;64.90
78886;DHT22;68269;52.514;5.722;2023-09-19T10:40:51;19.00;64.80
78886;DHT22;68269;52.514;5.722;2023-09-19T10:43:25;19.10;64.70
78886;DHT22;68269;52.514;5.722;2023-09-19T10:46:00;19.10;64.80
78886;DHT22;68269;52.514;5.722;2023-09-19T10:48:32;19.10;64.80
78886;DHT22;68269;52.514;5.722;2023-09-19T10:51:05;19.10;64.80
78886;DHT22;68269;52.514;5.722;2023-09-19T10:53:47;19.10;64.70
78886;DHT22;68269;52.514;5.722;2023-09-19T10:56:20;19.20;64.60
78886;DHT22;68269;52.514;5.722;2023-09-19T10:58:50;19.30;64.70
78886;DHT22;68269;52.514;5.722;2023-09-19T11:01:19;19.30;64.60
78886;DHT22;68269;52.514;5.722;2023-09-19T11:04:21;19.30;64.60
78886;DHT22;68269;52.514;5.722;2023-09-19T11:07:02;19.40;64.50
78886;DHT22;68269;52.514;5.722;2023-09-19T11:09:48;19.50;64.40
78886;DHT22;68269;52.514;5.722;2023-09-19T11:12:49;19.50;64.40
78886;DHT22;68269;52.514;5.722;2023-09-19T11:21:53;19.40;64.30
78886;DHT22;68269;52.514;5.722;2023-09-19T11:24:28;19.40;64.30
78886;DHT22;68269;52.514;5.722;2023-09-19T11:27:16;19.50;64.30
78886;DHT22;68269;52.514;5.722;2023-09-19T11:29:46;19.50;64.20
78886;DHT22;68269;52.514;5.722;2023-09-19T11:32:16;19.50;64.30
78886;DHT22;68269;52.514;5.722;2023-09-19T11:34:47;19.50;64.30
78886;DHT22;68269;52.514;5.722;2023-09-19T11:40:26;19.50;64.00
78886;DHT22;68269;52.514;5.722;2023-09-19T11:42:59;19.60;64.10
78886;DHT22;68269;52.514;5.722;2023-09-19T11:48:32;19.60;64.00
78886;DHT22;68269;52.514;5.722;2023-09-19T11:51:15;19.50;64.20
78886;DHT22;68269;52.514;5.722;2023-09-19T11:53:49;19.50;64.10
78886;DHT22;68269;52.514;5.722;2023-09-19T11:56:20;19.60;64.00
78886;DHT22;68269;52.514;5.722;2023-09-19T11:58:54;19.70;63.90
78886;DHT22;68269;52.514;5.722;2023-09-19T12:01:25;19.90;63.70
78886;DHT22;68269;52.514;5.722;2023-09-19T12:03:56;20.00;63.60
78886;DHT22;68269;52.514;5.722;2023-09-19T12:06:27;20.10;63.50
78886;DHT22;68269;52.514;5.722;2023-09-19T12:08:56;20.30;63.40
78886;DHT22;68269;52.514;5.722;2023-09-19T12:11:29;20.30;63.40
78886;DHT22;68269;52.514;5.722;2023-09-19T12:14:04;20.30;63.40
78886;DHT22;68269;52.514;5.722;2023-09-19T12:16:33;20.30;63.50
78886;DHT22;68269;52.514;5.722;2023-09-19T12:19:19;20.30;63.60
78886;DHT22;68269;52.514;5.722;2023-09-19T12:21:56;20.20;63.50
78886;DHT22;68269;52.514;5.722;2023-09-19T12:24:30;20.10;63.60
78886;DHT22;68269;52.514;5.722;2023-09-19T12:27:04;20.00;63.70
78886;DHT22;68269;52.514;5.722;2023-09-19T12:29:48;20.00;63.70
78886;DHT22;68269;52.514;5.722;2023-09-19T12:32:34;19.90;63.70
78886;DHT22;68269;52.514;5.722;2023-09-19T12:35:05;19.90;63.70
78886;DHT22;68269;52.514;5.722;2023-09-19T12:37:37;19.90;63.70
78886;DHT22;68269;52.514;5.722;2023-09-19T12:40:14;19.80;63.80
78886;DHT22;68269;52.514;5.722;2023-09-19T12:42:44;19.70;63.80
78886;DHT22;68269;52.514;5.722;2023-09-19T12:45:17;19.70;63.80
78886;DHT22;68269;52.514;5.722;2023-09-19T12:48:17;19.70;63.70
78886;DHT22;68269;52.514;5.722;2023-09-19T12:51:02;19.70;63.60
78886;DHT22;68269;52.514;5.722;2023-09-19T12:53:34;19.60;63.70
78886;DHT22;68269;52.514;5.722;2023-09-19T12:56:06;19.50;63.70
78886;DHT22;68269;52.514;5.722;2023-09-19T12:58:48;19.50;63.70
78886;DHT22;68269;52.514;5.722;2023-09-19T13:01:23;19.50;63.70
78886;DHT22;68269;52.514;5.722;2023-09-19T13:04:14;19.50;63.70
78886;DHT22;68269;52.514;5.722;2023-09-19T13:06:44;19.50;63.60
78886;DHT22;68269;52.514;5.722;2023-09-19T13:09:15;19.50;63.60
78886;DHT22;68269;52.514;5.722;2023-09-19T13:11:47;19.60;63.50
78886;DHT22;68269;52.514;5.722;2023-09-19T13:14:19;19.70;63.40
78886;DHT22;68269;52.514;5.722;2023-09-19T13:16:56;19.70;63.40
78886;DHT22;68269;52.514;5.722;2023-09-19T13:19:40;19.70;63.30
78886;DHT22;68269;52.514;5.722;2023-09-19T13:22:37;19.70;63.30
78886;DHT22;68269;52.514;5.722;2023-09-19T13:25:08;19.80;63.30
78886;DHT22;68269;52.514;5.722;2023-09-19T13:27:40;19.90;63.30
78886;DHT22;68269;52.514;5.722;2023-09-19T13:30:11;19.80;63.40
78886;DHT22;68269;52.514;5.722;2023-09-19T13:32:44;19.80;63.40
78886;DHT22;68269;52.514;5.722;2023-09-19T13:35:14;19.90;63.40
78886;DHT22;68269;52.514;5.722;2023-09-19T13:37:44;19.90;63.40
78886;DHT22;68269;52.514;5.722;2023-09-19T13:40:18;19.90;63.30
78886;DHT22;68269;52.514;5.722;2023-09-19T13:42:47;19.90;63.40
78886;DHT22;68269;52.514;5.722;2023-09-19T13:45:20;19.90;63.40
78886;DHT22;68269;52.514;5.722;2023-09-19T13:47:53;19.90;63.50
78886;DHT22;68269;52.514;5.722;2023-09-19T13:50:22;19.90;63.40
78886;DHT22;68269;52.514;5.722;2023-09-19T13:52:55;19.90;63.40
78886;DHT22;68269;52.514;5.722;2023-09-19T13:55:26;19.90;63.40
78886;DHT22;68269;52.514;5.722;2023-09-19T13:57:56;19.90;63.40
78886;DHT22;68269;52.514;5.722;2023-09-19T14:00:25;19.90;63.50
78886;DHT22;68269;52.514;5.722;2023-09-19T14:02:57;19.90;63.50
78886;DHT22;68269;52.514;5.722;2023-09-19T14:05:27;19.80;63.50
78886;DHT22;68269;52.514;5.722;2023-09-19T14:07:57;19.80;63.50
78886;DHT22;68269;52.514;5.722;2023-09-19T14:10:29;19.70;63.50
78886;DHT22;68269;52.514;5.722;2023-09-19T14:12:59;19.70;63.50
78886;DHT22;68269;52.514;5.722;2023-09-19T14:15:28;19.70;63.60
78886;DHT22;68269;52.514;5.722;2023-09-19T14:18:04;19.70;63.60
78886;DHT22;68269;52.514;5.722;2023-09-19T14:20:38;19.70;63.70
78886;DHT22;68269;52.514;5.722;2023-09-19T14:23:08;19.70;63.70
78886;DHT22;68269;52.514;5.722;2023-09-19T14:25:38;19.60;63.70
78886;DHT22;68269;52.514;5.722;2023-09-19T14:28:07;19.60;63.90
78886;DHT22;68269;52.514;5.722;2023-09-19T14:30:37;19.50;63.90
78886;DHT22;68269;52.514;5.722;2023-09-19T14:33:09;19.50;64.00
78886;DHT22;68269;52.514;5.722;2023-09-19T14:35:38;19.50;64.00
78886;DHT22;68269;52.514;5.722;2023-09-19T14:38:08;19.50;64.00
78886;DHT22;68269;52.514;5.722;2023-09-19T14:40:37;19.50;64.10
78886;DHT22;68269;52.514;5.722;2023-09-19T14:43:06;19.40;64.20
78886;DHT22;68269;52.514;5.722;2023-09-19T14:45:36;19.40;64.30
78886;DHT22;68269;52.514;5.722;2023-09-19T14:48:09;19.40;64.30
78886;DHT22;68269;52.514;5.722;2023-09-19T14:50:38;19.30;64.40
78886;DHT22;68269;52.514;5.722;2023-09-19T14:53:08;19.30;64.40
78886;DHT22;68269;52.514;5.722;2023-09-19T14:55:38;19.30;64.40
78886;DHT22;68269;52.514;5.722;2023-09-19T14:58:11;19.30;64.40
78886;DHT22;68269;52.514;5.722;2023-09-19T15:00:40;19.40;64.40
78886;DHT22;68269;52.514;5.722;2023-09-19T15:03:14;19.40;64.40
78886;DHT22;68269;52.514;5.722;2023-09-19T15:05:44;19.30;64.40
78886;DHT22;68269;52.514;5.722;2023-09-19T15:08:14;19.30;64.40
78886;DHT22;68269;52.514;5.722;2023-09-19T15:10:49;19.30;64.40
78886;DHT22;68269;52.514;5.722;2023-09-19T15:13:20;19.30;64.40
78886;DHT22;68269;52.514;5.722;2023-09-19T15:15:57;19.30;64.40
78886;DHT22;68269;52.514;5.722;2023-09-19T15:18:30;19.20;64.50
78886;DHT22;68269;52.514;5.722;2023-09-19T15:21:00;19.20;64.50
78886;DHT22;68269;52.514;5.722;2023-09-19T15:23:30;19.20;64.50
78886;DHT22;68269;52.514;5.722;2023-09-19T15:26:00;19.20;64.60
78886;DHT22;68269;52.514;5.722;2023-09-19T15:28:30;19.10;64.70
78886;DHT22;68269;52.514;5.722;2023-09-19T15:31:00;19.00;64.90
78886;DHT22;68269;52.514;5.722;2023-09-19T15:33:33;19.00;65.10
78886;DHT22;68269;52.514;5.722;2023-09-19T15:36:03;18.80;65.50
78886;DHT22;68269;52.514;5.722;2023-09-19T15:38:56;18.80;65.60
78886;DHT22;68269;52.514;5.722;2023-09-19T15:41:26;18.70;65.80
78886;DHT22;68269;52.514;5.722;2023-09-19T15:43:57;18.70;65.90
78886;DHT22;68269;52.514;5.722;2023-09-19T15:46:27;18.60;66.00
78886;DHT22;68269;52.514;5.722;2023-09-19T15:48:59;18.60;66.10
78886;DHT22;68269;52.514;5.722;2023-09-19T15:51:29;18.60;66.10
78886;DHT22;68269;52.514;5.722;2023-09-19T15:53:58;18.50;66.20
78886;DHT22;68269;52.514;5.722;2023-09-19T15:56:28;18.50;66.20
78886;DHT22;68269;52.514;5.722;2023-09-19T15:58:58;18.50;66.20
78886;DHT22;68269;52.514;5.722;2023-09-19T16:01:27;18.50;66.20
78886;DHT22;68269;52.514;5.722;2023-09-19T16:03:59;18.50;66.20
78886;DHT22;68269;52.514;5.722;2023-09-19T16:06:30;18.50;66.20
78886;DHT22;68269;52.514;5.722;2023-09-19T16:08:59;18.50;66.20
78886;DHT22;68269;52.514;5.722;2023-09-19T16:11:32;18.50;66.20
78886;DHT22;68269;52.514;5.722;2023-09-19T16:14:02;18.50;66.30
78886;DHT22;68269;52.514;5.722;2023-09-19T16:16:32;18.50;66.20
78886;DHT22;68269;52.514;5.722;2023-09-19T16:19:05;18.50;66.20
78886;DHT22;68269;52.514;5.722;2023-09-19T16:21:37;18.50;66.20